KFOE/FOE METAR and TAF weather

Enter ICAO airport designator
Station Type Date Time Source
KFOE METAR 2022/06/26 07:53 UTC NOAA

KFOE 260753Z AUTO 36011KT 10SM CLR 22/14 A3016 RMK AO2 RAE0657 SLP199 P0000 T02220139 $


Station Type Date Time Source
KFOE Decoded METAR 2022/06/26 07:53 UTC NOAA

FORBES FIELD, KS, United States (KFOE) 38-56N 95-39W 320M
Jun 26, 2022 - 03:53 AM EDT / 2022.06.26 0753 UTC
Wind: from the N (360 degrees) at 13 MPH (11 KT):0
Visibility: 10 mile(s):0
Sky conditions: clear
Precipitation last hour: A trace
Temperature: 72.0 F (22.2 C)
Dew Point: 57.0 F (13.9 C)
Relative Humidity: 59%
Pressure (altimeter): 30.16 in. Hg (1021 hPa)
ob: KFOE 260753Z AUTO 36011KT 10SM CLR 22/14 A3016 RMK AO2 RAE0657 SLP199 P0000 T02220139
cycle: 8

Station Type Date Time Source
KFOE TAF 2022/06/26 06:22 UTC NOAA

TAF KFOE 260520Z 2606/2706 35011KT P6SM VCSH BKN120
FM261600 01012KT P6SM BKN200

Example: see airport list